Marcy Colony, South Dakota
Current Conditions -  °F | °C
As of 9:53 PM on Saturday 20 Dec 2014 (Local Time) from KMHE Reporting Station
Haze Haze  
Wind Chill: 23°   Ceiling: 600
Heat Index: 32°   Visibility: 6mi
Dew Point: 31°   Wind: 12mph
Humidity: 96%   Direction: 180°S
Pressure: 29.95"   Gusts: NA
Location:  43.4018°N, 97.9102°W
Report Text: KMHE 210353Z AUTO 18010KT 6SM BR OVC006 00/M01 A2995 RMK AO2 SLP158 T00001006
Loading
Personal Weather Stations






























Interactive Weather Map New forecast layout! Learn more

10-Day Weather Forecast

Advertisements
Track Severe Weather on mobile